sensor_id;sensor_type;location;lat;lon;timestamp;pressure;altitude;pressure_sealevel;temperature;humidity
49377;BME280;35253;34.688;33.040;2023-04-22T00:01:49;100663.75;;;18.21;100.00
49377;BME280;35253;34.688;33.040;2023-04-22T00:04:15;100657.22;;;18.14;100.00
49377;BME280;35253;34.688;33.040;2023-04-22T00:06:41;100657.97;;;18.16;100.00
49377;BME280;35253;34.688;33.040;2023-04-22T00:09:07;100648.00;;;18.07;100.00
49377;BME280;35253;34.688;33.040;2023-04-22T00:11:32;100650.41;;;18.10;100.00
49377;BME280;35253;34.688;33.040;2023-04-22T00:13:58;100646.72;;;18.11;100.00
49377;BME280;35253;34.688;33.040;2023-04-22T00:16:25;100655.78;;;18.00;100.00
49377;BME280;35253;34.688;33.040;2023-04-22T00:18:50;100665.72;;;18.00;100.00
49377;BME280;35253;34.688;33.040;2023-04-22T00:21:16;100669.00;;;17.94;100.00
49377;BME280;35253;34.688;33.040;2023-04-22T00:23:41;100672.53;;;17.94;100.00
49377;BME280;35253;34.688;33.040;2023-04-22T00:26:10;100671.13;;;18.00;100.00
49377;BME280;35253;34.688;33.040;2023-04-22T00:28:35;100666.28;;;17.94;100.00
49377;BME280;35253;34.688;33.040;2023-04-22T00:31:01;100670.81;;;17.93;100.00
49377;BME280;35253;34.688;33.040;2023-04-22T00:33:29;100671.38;;;17.87;100.00
49377;BME280;35253;34.688;33.040;2023-04-22T00:35:55;100672.25;;;17.97;100.00
49377;BME280;35253;34.688;33.040;2023-04-22T00:38:21;100672.81;;;18.01;100.00
49377;BME280;35253;34.688;33.040;2023-04-22T00:40:47;100682.75;;;18.00;100.00
49377;BME280;35253;34.688;33.040;2023-04-22T00:43:13;100676.78;;;17.97;100.00
49377;BME280;35253;34.688;33.040;2023-04-22T00:45:41;100679.78;;;18.03;100.00
49377;BME280;35253;34.688;33.040;2023-04-22T00:48:07;100679.94;;;18.02;100.00
49377;BME280;35253;34.688;33.040;2023-04-22T00:50:33;100684.75;;;18.08;100.00
49377;BME280;35253;34.688;33.040;2023-04-22T00:52:59;100681.66;;;18.13;100.00
49377;BME280;35253;34.688;33.040;2023-04-22T00:55:25;100684.34;;;18.13;100.00
49377;BME280;35253;34.688;33.040;2023-04-22T00:57:51;100679.69;;;18.24;100.00
49377;BME280;35253;34.688;33.040;2023-04-22T01:00:19;100690.19;;;18.18;100.00
49377;BME280;35253;34.688;33.040;2023-04-22T01:02:48;100684.75;;;18.08;100.00
49377;BME280;35253;34.688;33.040;2023-04-22T01:05:14;100685.34;;;18.21;100.00
49377;BME280;35253;34.688;33.040;2023-04-22T01:07:39;100687.19;;;18.11;100.00
49377;BME280;35253;34.688;33.040;2023-04-22T01:10:06;100689.63;;;18.14;100.00
49377;BME280;35253;34.688;33.040;2023-04-22T01:12:31;100694.47;;;18.20;100.00
49377;BME280;35253;34.688;33.040;2023-04-22T01:14:57;100696.72;;;18.15;100.00
49377;BME280;35253;34.688;33.040;2023-04-22T01:17:23;100685.63;;;18.18;100.00
49377;BME280;35253;34.688;33.040;2023-04-22T01:19:49;100681.69;;;18.32;100.00
49377;BME280;35253;34.688;33.040;2023-04-22T01:22:15;100692.63;;;18.30;100.00
49377;BME280;35253;34.688;33.040;2023-04-22T01:24:41;100680.84;;;18.31;100.00
49377;BME280;35253;34.688;33.040;2023-04-22T01:27:07;100689.22;;;18.28;100.00
49377;BME280;35253;34.688;33.040;2023-04-22T01:29:35;100691.19;;;18.26;100.00
49377;BME280;35253;34.688;33.040;2023-04-22T01:32:02;100696.44;;;18.18;100.00
49377;BME280;35253;34.688;33.040;2023-04-22T01:34:29;100696.44;;;18.18;100.00
49377;BME280;35253;34.688;33.040;2023-04-22T01:36:55;100701.25;;;18.15;100.00
49377;BME280;35253;34.688;33.040;2023-04-22T01:39:20;100695.56;;;18.18;100.00
49377;BME280;35253;34.688;33.040;2023-04-22T01:41:46;100699.56;;;18.23;100.00
49377;BME280;35253;34.688;33.040;2023-04-22T01:44:13;100693.03;;;18.16;100.00
49377;BME280;35253;34.688;33.040;2023-04-22T01:46:39;100692.91;;;18.27;100.00
49377;BME280;35253;34.688;33.040;2023-04-22T01:49:04;100697.16;;;18.30;100.00
49377;BME280;35253;34.688;33.040;2023-04-22T01:51:30;100695.91;;;18.34;100.00
49377;BME280;35253;34.688;33.040;2023-04-22T01:53:56;100699.28;;;18.26;100.00
49377;BME280;35253;34.688;33.040;2023-04-22T01:56:22;100694.47;;;18.30;100.00
49377;BME280;35253;34.688;33.040;2023-04-22T01:58:48;100692.22;;;18.25;100.00
49377;BME280;35253;34.688;33.040;2023-04-22T02:01:14;100683.66;;;18.20;100.00
49377;BME280;35253;34.688;33.040;2023-04-22T02:03:40;100685.22;;;18.23;100.00
49377;BME280;35253;34.688;33.040;2023-04-22T02:06:06;100688.50;;;18.26;100.00
49377;BME280;35253;34.688;33.040;2023-04-22T02:08:32;100692.22;;;18.25;100.00
49377;BME280;35253;34.688;33.040;2023-04-22T02:10:58;100688.34;;;18.18;100.00
49377;BME280;35253;34.688;33.040;2023-04-22T02:13:25;100697.59;;;18.25;100.00
49377;BME280;35253;34.688;33.040;2023-04-22T02:15:51;100696.47;;;18.28;100.00
49377;BME280;35253;34.688;33.040;2023-04-22T02:18:18;100695.31;;;18.30;100.00
49377;BME280;35253;34.688;33.040;2023-04-22T02:20:43;100699.88;;;18.39;100.00
49377;BME280;35253;34.688;33.040;2023-04-22T02:23:09;100691.34;;;18.34;100.00
49377;BME280;35253;34.688;33.040;2023-04-22T02:25:36;100690.78;;;18.40;100.00
49377;BME280;35253;34.688;33.040;2023-04-22T02:28:02;100699.03;;;18.29;100.00
49377;BME280;35253;34.688;33.040;2023-04-22T02:30:28;100705.00;;;18.33;100.00
49377;BME280;35253;34.688;33.040;2023-04-22T02:32:53;100706.13;;;18.30;100.00
49377;BME280;35253;34.688;33.040;2023-04-22T02:35:20;100706.72;;;18.34;100.00
49377;BME280;35253;34.688;33.040;2023-04-22T02:37:46;100704.69;;;18.26;100.00
49377;BME280;35253;34.688;33.040;2023-04-22T02:40:12;100709.81;;;18.39;100.00
49377;BME280;35253;34.688;33.040;2023-04-22T02:42:37;100712.25;;;18.32;100.00
49377;BME280;35253;34.688;33.040;2023-04-22T02:45:04;100714.66;;;18.35;100.00
49377;BME280;35253;34.688;33.040;2023-04-22T02:47:29;100714.94;;;18.32;100.00
49377;BME280;35253;34.688;33.040;2023-04-22T02:49:55;100718.34;;;18.34;100.00
49377;BME280;35253;34.688;33.040;2023-04-22T02:52:21;100722.59;;;18.27;100.00
49377;BME280;35253;34.688;33.040;2023-04-22T02:54:46;100716.78;;;18.32;100.00
49377;BME280;35253;34.688;33.040;2023-04-22T02:57:12;100720.19;;;18.24;100.00
49377;BME280;35253;34.688;33.040;2023-04-22T02:59:37;100720.63;;;18.29;100.00
49377;BME280;35253;34.688;33.040;2023-04-22T03:02:03;100729.72;;;18.28;100.00
49377;BME280;35253;34.688;33.040;2023-04-22T03:04:29;100722.16;;;18.22;100.00
49377;BME280;35253;34.688;33.040;2023-04-22T03:06:55;100728.28;;;18.24;100.00
49377;BME280;35253;34.688;33.040;2023-04-22T03:09:20;100731.97;;;18.23;100.00
49377;BME280;35253;34.688;33.040;2023-04-22T03:11:46;100734.25;;;18.28;100.00
49377;BME280;35253;34.688;33.040;2023-04-22T03:14:12;100724.03;;;18.31;100.00
49377;BME280;35253;34.688;33.040;2023-04-22T03:16:38;100727.69;;;18.30;100.00
49377;BME280;35253;34.688;33.040;2023-04-22T03:19:03;100726.44;;;18.34;100.00
49377;BME280;35253;34.688;33.040;2023-04-22T03:21:29;100719.75;;;18.29;100.00
49377;BME280;35253;34.688;33.040;2023-04-22T03:23:56;100732.00;;;18.33;100.00
49377;BME280;35253;34.688;33.040;2023-04-22T03:26:22;100735.09;;;18.28;100.00
49377;BME280;35253;34.688;33.040;2023-04-22T03:28:48;100733.38;;;18.27;100.00
49377;BME280;35253;34.688;33.040;2023-04-22T03:31:13;100738.50;;;18.30;100.00
49377;BME280;35253;34.688;33.040;2023-04-22T03:33:39;100727.88;;;18.38;100.00
49377;BME280;35253;34.688;33.040;2023-04-22T03:36:05;100745.19;;;18.36;100.00
49377;BME280;35253;34.688;33.040;2023-04-22T03:38:30;100742.81;;;18.42;100.00
49377;BME280;35253;34.688;33.040;2023-04-22T03:40:56;100740.25;;;18.51;100.00
49377;BME280;35253;34.688;33.040;2023-04-22T03:43:22;100741.25;;;18.50;100.00
49377;BME280;35253;34.688;33.040;2023-04-22T03:45:49;100741.09;;;18.41;100.00
49377;BME280;35253;34.688;33.040;2023-04-22T03:48:15;100745.91;;;18.47;100.00
49377;BME280;35253;34.688;33.040;2023-04-22T03:50:40;100736.13;;;18.46;100.00
49377;BME280;35253;34.688;33.040;2023-04-22T03:53:06;100744.94;;;18.48;100.00
49377;BME280;35253;34.688;33.040;2023-04-22T03:55:32;100750.63;;;18.45;100.00
49377;BME280;35253;34.688;33.040;2023-04-22T03:57:58;100752.88;;;18.40;100.00
49377;BME280;35253;34.688;33.040;2023-04-22T04:00:24;100762.13;;;18.47;100.00
49377;BME280;35253;34.688;33.040;2023-04-22T04:02:49;100759.91;;;18.53;100.00
49377;BME280;35253;34.688;33.040;2023-04-22T04:05:15;100766.72;;;18.57;100.00
49377;BME280;35253;34.688;33.040;2023-04-22T04:07:41;100773.84;;;18.67;100.00
49377;BME280;35253;34.688;33.040;2023-04-22T04:10:07;100782.41;;;18.72;100.00
49377;BME280;35253;34.688;33.040;2023-04-22T04:12:33;100789.50;;;18.83;100.00
49377;BME280;35253;34.688;33.040;2023-04-22T04:14:58;100781.84;;;18.88;100.00
49377;BME280;35253;34.688;33.040;2023-04-22T04:17:24;100788.09;;;18.98;100.00
49377;BME280;35253;34.688;33.040;2023-04-22T04:19:54;100792.94;;;19.04;100.00
49377;BME280;35253;34.688;33.040;2023-04-22T04:22:20;100791.94;;;19.15;100.00
49377;BME280;35253;34.688;33.040;2023-04-22T04:24:46;100791.94;;;19.24;100.00
49377;BME280;35253;34.688;33.040;2023-04-22T04:27:12;100784.38;;;19.28;100.00
49377;BME280;35253;34.688;33.040;2023-04-22T04:29:38;100795.06;;;19.29;100.00
49377;BME280;35253;34.688;33.040;2023-04-22T04:32:08;100788.09;;;19.27;100.00
49377;BME280;35253;34.688;33.040;2023-04-22T04:34:34;100788.13;;;19.08;100.00
49377;BME280;35253;34.688;33.040;2023-04-22T04:37:02;100789.97;;;19.17;100.00
49377;BME280;35253;34.688;33.040;2023-04-22T04:39:28;100785.25;;;19.28;100.00
49377;BME280;35253;34.688;33.040;2023-04-22T04:41:54;100789.06;;;19.35;100.00
49377;BME280;35253;34.688;33.040;2023-04-22T04:44:23;100781.25;;;19.42;100.00
49377;BME280;35253;34.688;33.040;2023-04-22T04:46:51;100785.81;;;19.51;100.00
49377;BME280;35253;34.688;33.040;2023-04-22T04:49:16;100791.22;;;19.61;100.00
49377;BME280;35253;34.688;33.040;2023-04-22T04:51:42;100790.19;;;19.71;100.00
49377;BME280;35253;34.688;33.040;2023-04-22T04:54:08;100793.16;;;19.78;100.00
49377;BME280;35253;34.688;33.040;2023-04-22T04:56:33;100797.84;;;19.76;100.00
49377;BME280;35253;34.688;33.040;2023-04-22T04:58:59;100794.41;;;19.84;100.00
49377;BME280;35253;34.688;33.040;2023-04-22T05:01:25;100800.22;;;19.98;100.00
49377;BME280;35253;34.688;33.040;2023-04-22T05:03:51;100806.66;;;20.24;100.00
49377;BME280;35253;34.688;33.040;2023-04-22T05:06:16;100805.13;;;20.49;100.00
49377;BME280;35253;34.688;33.040;2023-04-22T05:08:42;100800.69;;;20.76;100.00
49377;BME280;35253;34.688;33.040;2023-04-22T05:11:08;100796.44;;;20.73;100.00
49377;BME280;35253;34.688;33.040;2023-04-22T05:13:33;100798.78;;;21.03;100.00
49377;BME280;35253;34.688;33.040;2023-04-22T05:15:59;100800.69;;;21.11;100.00
49377;BME280;35253;34.688;33.040;2023-04-22T05:18:25;100811.84;;;20.90;100.00
49377;BME280;35253;34.688;33.040;2023-04-22T05:20:51;100803.41;;;20.93;100.00
49377;BME280;35253;34.688;33.040;2023-04-22T05:23:16;100799.22;;;20.81;100.00
49377;BME280;35253;34.688;33.040;2023-04-22T05:25:42;100798.47;;;20.71;100.00
49377;BME280;35253;34.688;33.040;2023-04-22T05:28:08;100795.75;;;20.71;100.00
49377;BME280;35253;34.688;33.040;2023-04-22T05:30:34;100802.00;;;20.89;100.00
49377;BME280;35253;34.688;33.040;2023-04-22T05:32:59;100807.16;;;20.92;100.00
49377;BME280;35253;34.688;33.040;2023-04-22T05:35:25;100797.63;;;20.88;100.00
49377;BME280;35253;34.688;33.040;2023-04-22T05:37:51;100796.19;;;21.02;100.00
49377;BME280;35253;34.688;33.040;2023-04-22T05:40:17;100799.09;;;21.36;100.00
49377;BME280;35253;34.688;33.040;2023-04-22T05:42:43;100807.75;;;21.57;100.00
49377;BME280;35253;34.688;33.040;2023-04-22T05:45:09;100805.00;;;21.75;100.00
49377;BME280;35253;34.688;33.040;2023-04-22T05:47:34;100805.84;;;21.75;100.00
49377;BME280;35253;34.688;33.040;2023-04-22T05:50:00;100806.91;;;21.82;100.00
49377;BME280;35253;34.688;33.040;2023-04-22T05:54:51;100815.75;;;21.84;100.00
49377;BME280;35253;34.688;33.040;2023-04-22T05:57:17;100820.50;;;21.90;100.00
49377;BME280;35253;34.688;33.040;2023-04-22T05:59:43;100815.31;;;21.71;100.00
49377;BME280;35253;34.688;33.040;2023-04-22T06:02:08;100815.75;;;21.58;100.00
49377;BME280;35253;34.688;33.040;2023-04-22T06:04:34;100814.50;;;21.53;100.00
49377;BME280;35253;34.688;33.040;2023-04-22T06:07:00;100816.75;;;21.40;100.00
49377;BME280;35253;34.688;33.040;2023-04-22T06:09:25;100824.78;;;21.67;100.00
49377;BME280;35253;34.688;33.040;2023-04-22T06:11:51;100816.69;;;21.75;100.00
49377;BME280;35253;34.688;33.040;2023-04-22T06:14:17;100822.75;;;21.69;100.00
49377;BME280;35253;34.688;33.040;2023-04-22T06:16:42;100820.13;;;21.85;100.00
49377;BME280;35253;34.688;33.040;2023-04-22T06:19:08;100810.41;;;21.92;100.00
49377;BME280;35253;34.688;33.040;2023-04-22T06:21:34;100820.34;;;22.10;100.00
49377;BME280;35253;34.688;33.040;2023-04-22T06:24:01;100822.94;;;22.19;100.00
49377;BME280;35253;34.688;33.040;2023-04-22T06:26:29;100819.75;;;22.24;100.00
49377;BME280;35253;34.688;33.040;2023-04-22T06:28:55;100822.50;;;22.32;100.00
49377;BME280;35253;34.688;33.040;2023-04-22T06:31:20;100820.03;;;22.21;100.00
49377;BME280;35253;34.688;33.040;2023-04-22T06:33:46;100822.22;;;21.66;100.00
49377;BME280;35253;34.688;33.040;2023-04-22T06:36:12;100814.91;;;22.10;100.00
49377;BME280;35253;34.688;33.040;2023-04-22T06:38:38;100819.72;;;22.16;100.00
49377;BME280;35253;34.688;33.040;2023-04-22T06:41:03;100825.63;;;22.11;100.00
49377;BME280;35253;34.688;33.040;2023-04-22T06:43:29;100831.19;;;22.10;100.00
49377;BME280;35253;34.688;33.040;2023-04-22T06:45:55;100829.84;;;21.88;100.00
49377;BME280;35253;34.688;33.040;2023-04-22T06:48:21;100832.53;;;22.06;100.00
49377;BME280;35253;34.688;33.040;2023-04-22T06:50:47;100827.38;;;21.94;100.00
49377;BME280;35253;34.688;33.040;2023-04-22T06:53:12;100826.25;;;22.05;100.00
49377;BME280;35253;34.688;33.040;2023-04-22T06:55:38;100823.19;;;22.08;100.00
49377;BME280;35253;34.688;33.040;2023-04-22T06:58:04;100833.63;;;22.21;100.00
49377;BME280;35253;34.688;33.040;2023-04-22T07:00:29;100824.47;;;22.22;100.00
49377;BME280;35253;34.688;33.040;2023-04-22T07:02:56;100820.25;;;22.27;100.00
49377;BME280;35253;34.688;33.040;2023-04-22T07:05:22;100826.28;;;22.13;100.00
49377;BME280;35253;34.688;33.040;2023-04-22T07:07:48;100821.94;;;22.20;100.00
49377;BME280;35253;34.688;33.040;2023-04-22T07:10:14;100831.38;;;22.16;100.00
49377;BME280;35253;34.688;33.040;2023-04-22T07:12:39;100835.13;;;22.15;100.00
49377;BME280;35253;34.688;33.040;2023-04-22T07:15:06;100835.59;;;22.02;100.00
49377;BME280;35253;34.688;33.040;2023-04-22T07:17:32;100838.94;;;21.96;100.00
49377;BME280;35253;34.688;33.040;2023-04-22T07:19:57;100832.56;;;21.88;100.00
49377;BME280;35253;34.688;33.040;2023-04-22T07:22:23;100837.56;;;21.75;100.00
49377;BME280;35253;34.688;33.040;2023-04-22T07:24:49;100836.09;;;21.19;100.00
49377;BME280;35253;34.688;33.040;2023-04-22T07:27:15;100840.88;;;20.80;100.00
49377;BME280;35253;34.688;33.040;2023-04-22T07:29:41;100841.28;;;20.58;100.00
49377;BME280;35253;34.688;33.040;2023-04-22T07:32:07;100842.22;;;20.49;100.00
49377;BME280;35253;34.688;33.040;2023-04-22T07:34:33;100824.53;;;20.45;100.00
49377;BME280;35253;34.688;33.040;2023-04-22T07:36:59;100831.69;;;21.08;100.00
49377;BME280;35253;34.688;33.040;2023-04-22T07:39:25;100822.50;;;21.37;100.00
49377;BME280;35253;34.688;33.040;2023-04-22T07:41:51;100825.81;;;21.48;100.00
49377;BME280;35253;34.688;33.040;2023-04-22T07:44:17;100825.78;;;21.66;100.00
49377;BME280;35253;34.688;33.040;2023-04-22T07:46:46;100838.84;;;21.63;100.00
49377;BME280;35253;34.688;33.040;2023-04-22T07:49:13;100832.97;;;21.75;100.00
49377;BME280;35253;34.688;33.040;2023-04-22T07:51:39;100840.84;;;21.86;100.00
49377;BME280;35253;34.688;33.040;2023-04-22T07:54:05;100833.50;;;21.96;100.00
49377;BME280;35253;34.688;33.040;2023-04-22T07:56:31;100831.19;;;22.10;100.00
49377;BME280;35253;34.688;33.040;2023-04-22T07:58:57;100841.06;;;22.11;100.00
49377;BME280;35253;34.688;33.040;2023-04-22T08:01:22;100838.13;;;22.04;100.00
49377;BME280;35253;34.688;33.040;2023-04-22T08:03:48;100835.44;;;21.86;100.00
49377;BME280;35253;34.688;33.040;2023-04-22T08:06:14;100837.22;;;21.78;100.00
49377;BME280;35253;34.688;33.040;2023-04-22T08:08:40;100841.34;;;20.93;100.00
49377;BME280;35253;34.688;33.040;2023-04-22T08:11:06;100829.63;;;21.38;100.00
49377;BME280;35253;34.688;33.040;2023-04-22T08:13:32;100842.63;;;21.52;100.00
49377;BME280;35253;34.688;33.040;2023-04-22T08:15:59;100849.50;;;21.64;100.00
49377;BME280;35253;34.688;33.040;2023-04-22T08:18:25;100855.00;;;21.72;100.00
49377;BME280;35253;34.688;33.040;2023-04-22T08:20:50;100843.25;;;21.28;100.00
49377;BME280;35253;34.688;33.040;2023-04-22T08:23:16;100847.56;;;21.74;100.00
49377;BME280;35253;34.688;33.040;2023-04-22T08:25:42;100844.22;;;21.37;100.00
49377;BME280;35253;34.688;33.040;2023-04-22T08:28:07;100856.66;;;20.40;100.00
49377;BME280;35253;34.688;33.040;2023-04-22T08:30:33;100857.34;;;20.42;100.00
49377;BME280;35253;34.688;33.040;2023-04-22T08:33:01;100856.53;;;20.86;100.00
49377;BME280;35253;34.688;33.040;2023-04-22T08:35:27;100859.16;;;21.23;100.00
49377;BME280;35253;34.688;33.040;2023-04-22T08:37:52;100858.84;;;21.44;100.00
49377;BME280;35253;34.688;33.040;2023-04-22T08:40:18;100854.88;;;21.56;100.00
49377;BME280;35253;34.688;33.040;2023-04-22T08:42:44;100855.97;;;21.63;100.00
49377;BME280;35253;34.688;33.040;2023-04-22T08:45:09;100858.41;;;21.74;100.00
49377;BME280;35253;34.688;33.040;2023-04-22T08:47:36;100855.09;;;21.80;100.00
49377;BME280;35253;34.688;33.040;2023-04-22T08:50:03;100848.13;;;21.86;100.00
49377;BME280;35253;34.688;33.040;2023-04-22T08:52:30;100853.19;;;21.98;100.00
49377;BME280;35253;34.688;33.040;2023-04-22T08:54:59;100848.88;;;22.14;100.00
49377;BME280;35253;34.688;33.040;2023-04-22T08:57:25;100843.53;;;22.30;100.00
49377;BME280;35253;34.688;33.040;2023-04-22T08:59:52;100845.78;;;22.42;100.00
49377;BME280;35253;34.688;33.040;2023-04-22T09:02:20;100841.06;;;22.44;100.00
49377;BME280;35253;34.688;33.040;2023-04-22T09:04:50;100849.38;;;22.51;100.00
49377;BME280;35253;34.688;33.040;2023-04-22T09:07:26;100835.31;;;22.56;100.00
49377;BME280;35253;34.688;33.040;2023-04-22T09:09:54;100834.41;;;22.39;100.00
49377;BME280;35253;34.688;33.040;2023-04-22T09:12:21;100822.22;;;21.91;100.00
49377;BME280;35253;34.688;33.040;2023-04-22T09:14:47;100838.38;;;22.19;100.00
49377;BME280;35253;34.688;33.040;2023-04-22T09:17:16;100835.75;;;22.35;100.00
49377;BME280;35253;34.688;33.040;2023-04-22T09:19:45;100828.34;;;22.53;100.00
49377;BME280;35253;34.688;33.040;2023-04-22T09:22:21;100827.03;;;22.65;100.00
49377;BME280;35253;34.688;33.040;2023-04-22T09:24:50;100826.00;;;22.58;100.00
49377;BME280;35253;34.688;33.040;2023-04-22T09:27:16;100809.69;;;22.58;100.00
49377;BME280;35253;34.688;33.040;2023-04-22T09:29:50;100814.56;;;22.80;100.00
49377;BME280;35253;34.688;33.040;2023-04-22T09:32:16;100816.94;;;22.83;100.00
49377;BME280;35253;34.688;33.040;2023-04-22T09:34:51;100808.13;;;23.06;100.00
49377;BME280;35253;34.688;33.040;2023-04-22T09:37:24;100803.56;;;23.22;100.00
49377;BME280;35253;34.688;33.040;2023-04-22T09:39:50;100804.25;;;23.32;100.00
49377;BME280;35253;34.688;33.040;2023-04-22T09:42:20;100809.22;;;23.45;100.00
49377;BME280;35253;34.688;33.040;2023-04-22T09:44:50;100806.66;;;23.60;100.00
49377;BME280;35253;34.688;33.040;2023-04-22T09:47:22;100799.66;;;23.82;100.00
49377;BME280;35253;34.688;33.040;2023-04-22T09:49:50;100806.06;;;23.97;100.00
49377;BME280;35253;34.688;33.040;2023-04-22T09:52:23;100796.84;;;24.06;100.00
49377;BME280;35253;34.688;33.040;2023-04-22T09:54:51;100809.09;;;24.26;100.00
49377;BME280;35253;34.688;33.040;2023-04-22T09:57:17;100804.75;;;24.40;100.00
49377;BME280;35253;34.688;33.040;2023-04-22T09:59:43;100793.25;;;24.30;100.00
49377;BME280;35253;34.688;33.040;2023-04-22T10:02:09;100804.16;;;24.21;100.00
49377;BME280;35253;34.688;33.040;2023-04-22T10:04:35;100808.66;;;24.45;100.00
49377;BME280;35253;34.688;33.040;2023-04-22T10:07:01;100807.19;;;24.27;100.00
49377;BME280;35253;34.688;33.040;2023-04-22T10:09:29;100805.41;;;23.78;100.00
49377;BME280;35253;34.688;33.040;2023-04-22T10:11:59;100804.38;;;24.04;100.00
49377;BME280;35253;34.688;33.040;2023-04-22T10:14:26;100806.25;;;24.50;100.00
49377;BME280;35253;34.688;33.040;2023-04-22T10:17:00;100812.19;;;24.54;100.00
49377;BME280;35253;34.688;33.040;2023-04-22T10:19:27;100818.28;;;24.64;100.00
49377;BME280;35253;34.688;33.040;2023-04-22T10:21:56;100817.81;;;24.60;100.00
49377;BME280;35253;34.688;33.040;2023-04-22T10:24:25;100817.28;;;24.96;100.00
49377;BME280;35253;34.688;33.040;2023-04-22T10:26:58;100812.69;;;24.96;100.00
49377;BME280;35253;34.688;33.040;2023-04-22T10:29:27;100821.16;;;25.24;100.00
49377;BME280;35253;34.688;33.040;2023-04-22T10:34:35;100815.94;;;25.37;100.00
49377;BME280;35253;34.688;33.040;2023-04-22T10:37:08;100816.81;;;25.61;100.00
49377;BME280;35253;34.688;33.040;2023-04-22T10:39:34;100811.25;;;25.08;100.00
49377;BME280;35253;34.688;33.040;2023-04-22T10:42:04;100815.97;;;25.60;100.00
49377;BME280;35253;34.688;33.040;2023-04-22T10:44:50;100801.78;;;25.79;100.00
49377;BME280;35253;34.688;33.040;2023-04-22T10:47:33;100800.47;;;25.90;100.00
49377;BME280;35253;34.688;33.040;2023-04-22T10:50:18;100795.47;;;25.79;100.00
49377;BME280;35253;34.688;33.040;2023-04-22T10:52:49;100786.25;;;25.80;100.00
49377;BME280;35253;34.688;33.040;2023-04-22T10:55:15;100782.97;;;25.84;100.00
49377;BME280;35253;34.688;33.040;2023-04-22T10:57:44;100791.13;;;25.70;100.00
49377;BME280;35253;34.688;33.040;2023-04-22T11:00:24;100786.06;;;25.67;100.00
49377;BME280;35253;34.688;33.040;2023-04-22T11:02:51;100781.63;;;25.66;100.00
49377;BME280;35253;34.688;33.040;2023-04-22T11:05:19;100779.50;;;25.53;100.00
49377;BME280;35253;34.688;33.040;2023-04-22T11:07:50;100777.88;;;25.96;100.00
49377;BME280;35253;34.688;33.040;2023-04-22T11:10:45;100769.25;;;25.55;100.00
49377;BME280;35253;34.688;33.040;2023-04-22T11:13:14;100778.63;;;25.90;100.00
49377;BME280;35253;34.688;33.040;2023-04-22T11:15:41;100769.00;;;25.94;100.00
49377;BME280;35253;34.688;33.040;2023-04-22T11:18:28;100769.78;;;26.32;100.00
49377;BME280;35253;34.688;33.040;2023-04-22T11:20:54;100758.19;;;26.00;100.00
49377;BME280;35253;34.688;33.040;2023-04-22T11:23:25;100764.22;;;26.11;100.00
49377;BME280;35253;34.688;33.040;2023-04-22T11:25:56;100754.50;;;25.79;100.00
49377;BME280;35253;34.688;33.040;2023-04-22T11:28:22;100753.16;;;25.00;100.00
49377;BME280;35253;34.688;33.040;2023-04-22T11:30:48;100759.47;;;25.61;100.00
49377;BME280;35253;34.688;33.040;2023-04-22T11:33:14;100749.88;;;25.65;100.00
49377;BME280;35253;34.688;33.040;2023-04-22T11:35:41;100758.94;;;25.20;100.00
49377;BME280;35253;34.688;33.040;2023-04-22T11:38:08;100754.34;;;24.97;100.00
49377;BME280;35253;34.688;33.040;2023-04-22T11:40:43;100754.63;;;24.80;100.00
49377;BME280;35253;34.688;33.040;2023-04-22T11:43:10;100749.88;;;25.27;100.00
49377;BME280;35253;34.688;33.040;2023-04-22T11:45:37;100744.34;;;25.12;100.00
49377;BME280;35253;34.688;33.040;2023-04-22T11:48:07;100741.63;;;25.12;100.00
49377;BME280;35253;34.688;33.040;2023-04-22T11:50:36;100746.22;;;25.12;100.00
49377;BME280;35253;34.688;33.040;2023-04-22T11:55:33;100735.84;;;24.85;100.00
49377;BME280;35253;34.688;33.040;2023-04-22T11:58:07;100735.09;;;24.99;100.00
49377;BME280;35253;34.688;33.040;2023-04-22T12:00:38;100740.13;;;24.56;100.00
49377;BME280;35253;34.688;33.040;2023-04-22T12:03:08;100724.25;;;24.60;100.00
49377;BME280;35253;34.688;33.040;2023-04-22T12:05:41;100734.06;;;25.00;100.00
49377;BME280;35253;34.688;33.040;2023-04-22T12:08:18;100725.94;;;24.84;100.00
49377;BME280;35253;34.688;33.040;2023-04-22T12:11:00;100722.56;;;24.82;100.00
49377;BME280;35253;34.688;33.040;2023-04-22T12:13:32;100722.44;;;24.52;100.00
49377;BME280;35253;34.688;33.040;2023-04-22T12:16:03;100713.78;;;24.72;100.00
49377;BME280;35253;34.688;33.040;2023-04-22T12:21:13;100709.25;;;24.33;100.00
49377;BME280;35253;34.688;33.040;2023-04-22T12:23:43;100708.34;;;24.41;100.00
49377;BME280;35253;34.688;33.040;2023-04-22T12:26:10;100707.88;;;24.37;100.00
49377;BME280;35253;34.688;33.040;2023-04-22T12:28:40;100708.69;;;23.44;100.00
49377;BME280;35253;34.688;33.040;2023-04-22T12:31:07;100714.63;;;22.90;100.00
49377;BME280;35253;34.688;33.040;2023-04-22T12:33:33;100707.03;;;23.90;100.00
49377;BME280;35253;34.688;33.040;2023-04-22T12:35:59;100699.06;;;24.27;100.00
49377;BME280;35253;34.688;33.040;2023-04-22T12:38:25;100701.66;;;24.51;100.00
49377;BME280;35253;34.688;33.040;2023-04-22T12:40:51;100702.03;;;24.94;100.00